createdAt,value
2023-05-13T00:01:15.045Z,11.38
2023-05-13T00:03:47.652Z,11.37
2023-05-13T00:06:20.221Z,11.36
2023-05-13T00:08:52.225Z,11.34
2023-05-13T00:11:24.255Z,11.31
2023-05-13T00:13:57.484Z,11.28
2023-05-13T00:16:29.685Z,11.20
2023-05-13T00:19:01.603Z,11.13
2023-05-13T00:21:33.882Z,11.12
2023-05-13T00:24:06.460Z,11.09
2023-05-13T00:26:38.506Z,11.07
2023-05-13T00:29:10.185Z,11.06
2023-05-13T00:31:42.305Z,11.05
2023-05-13T00:34:14.272Z,11.03
2023-05-13T00:36:46.930Z,11.03
2023-05-13T00:39:18.838Z,11.02
2023-05-13T00:41:50.708Z,10.98
2023-05-13T00:44:22.531Z,10.91
2023-05-13T00:46:54.619Z,10.83
2023-05-13T00:49:26.408Z,10.77
2023-05-13T00:51:59.209Z,10.74
2023-05-13T00:54:31.239Z,10.71
2023-05-13T00:57:03.339Z,10.68
2023-05-13T00:59:35.176Z,10.63
2023-05-13T01:02:14.523Z,10.60
2023-05-13T01:04:50.734Z,10.59
2023-05-13T01:07:28.329Z,10.60
2023-05-13T01:10:04.783Z,10.60
2023-05-13T01:12:43.539Z,10.58
2023-05-13T01:15:25.827Z,10.56
2023-05-13T01:17:58.866Z,10.53
2023-05-13T01:20:31.190Z,10.47
2023-05-13T01:23:04.341Z,10.42
2023-05-13T01:25:36.126Z,10.40
2023-05-13T01:28:08.766Z,10.39
2023-05-13T01:30:40.769Z,10.40
2023-05-13T01:33:13.550Z,10.37
2023-05-13T01:35:46.258Z,10.32
2023-05-13T01:38:20.922Z,10.27
2023-05-13T01:40:53.599Z,10.22
2023-05-13T01:43:26.182Z,10.20
2023-05-13T01:46:00.636Z,10.20
2023-05-13T01:48:32.964Z,10.18
2023-05-13T01:51:06.065Z,10.14
2023-05-13T01:53:38.342Z,10.07
2023-05-13T01:56:11.985Z,10.03
2023-05-13T01:58:43.859Z,10.02
2023-05-13T02:01:15.816Z,10.01
2023-05-13T02:03:47.828Z,9.98
2023-05-13T02:06:19.664Z,9.95
2023-05-13T02:08:51.812Z,9.92
2023-05-13T02:11:23.854Z,9.90
2023-05-13T02:13:56.031Z,9.88
2023-05-13T02:16:27.973Z,9.85
2023-05-13T02:19:00.318Z,9.84
2023-05-13T02:21:32.708Z,9.82
2023-05-13T02:24:04.902Z,9.79
2023-05-13T02:26:36.963Z,9.77
2023-05-13T02:29:09.010Z,9.74
2023-05-13T02:31:41.445Z,9.71
2023-05-13T02:34:13.625Z,9.66
2023-05-13T02:36:45.612Z,9.59
2023-05-13T02:39:17.629Z,9.57
2023-05-13T02:41:49.394Z,9.57
2023-05-13T02:44:21.397Z,9.58
2023-05-13T02:46:53.269Z,9.60
2023-05-13T02:49:25.177Z,9.63
2023-05-13T02:51:56.929Z,9.65
2023-05-13T02:54:28.789Z,9.67
2023-05-13T02:57:01.075Z,9.70
2023-05-13T02:59:32.905Z,9.72
2023-05-13T03:02:04.805Z,9.75
2023-05-13T03:04:36.799Z,9.77
2023-05-13T03:07:09.073Z,9.80
2023-05-13T03:09:42.446Z,9.84
2023-05-13T03:12:14.356Z,9.88
2023-05-13T03:14:46.858Z,9.89
2023-05-13T03:17:18.828Z,9.90
2023-05-13T03:19:50.929Z,9.92
2023-05-13T03:22:22.871Z,9.94
2023-05-13T03:24:55.320Z,9.95
2023-05-13T03:27:27.252Z,9.95
2023-05-13T03:29:59.148Z,9.99
2023-05-13T03:32:32.256Z,10.02
2023-05-13T03:35:04.489Z,10.03
2023-05-13T03:37:36.791Z,10.05
2023-05-13T03:40:11.048Z,10.08
2023-05-13T03:42:42.923Z,10.11
2023-05-13T03:45:14.794Z,10.10
2023-05-13T03:47:46.643Z,10.09
2023-05-13T03:50:18.591Z,10.10
2023-05-13T03:52:50.527Z,10.12
2023-05-13T03:55:23.138Z,10.14
2023-05-13T03:57:54.901Z,10.15
2023-05-13T04:00:28.964Z,10.18
2023-05-13T04:03:00.753Z,10.21
2023-05-13T04:05:32.793Z,10.23
2023-05-13T04:08:04.587Z,10.24
2023-05-13T04:10:36.560Z,10.26
2023-05-13T04:13:08.423Z,10.28
2023-05-13T04:15:40.642Z,10.28
2023-05-13T04:18:12.940Z,10.29
2023-05-13T04:20:45.342Z,10.31
2023-05-13T04:23:17.242Z,10.37
2023-05-13T04:25:53.336Z,10.48
2023-05-13T04:28:25.171Z,10.60
2023-05-13T04:30:57.270Z,10.75
2023-05-13T04:33:29.054Z,10.89
2023-05-13T04:36:01.201Z,11.04
2023-05-13T04:38:33.747Z,11.13
2023-05-13T04:41:06.002Z,11.20
2023-05-13T04:43:37.815Z,11.27
2023-05-13T04:46:09.694Z,11.33
2023-05-13T04:48:41.688Z,11.41
2023-05-13T04:51:14.167Z,11.52
2023-05-13T04:53:46.605Z,11.62
2023-05-13T04:56:18.634Z,11.68
2023-05-13T04:58:50.498Z,11.80
2023-05-13T05:01:22.456Z,11.96
2023-05-13T05:03:55.902Z,12.12
2023-05-13T05:06:27.703Z,12.30
2023-05-13T05:09:00.123Z,12.48
2023-05-13T05:11:32.100Z,12.68
2023-05-13T05:14:04.920Z,12.89
2023-05-13T05:16:36.687Z,13.09
2023-05-13T05:19:08.764Z,13.25
2023-05-13T05:21:40.656Z,13.41
2023-05-13T05:24:12.931Z,13.54
2023-05-13T05:26:44.776Z,13.68
2023-05-13T05:29:16.565Z,13.79
2023-05-13T05:31:48.559Z,13.89
2023-05-13T05:34:21.410Z,14.00
2023-05-13T05:36:55.202Z,14.07
2023-05-13T05:39:27.365Z,14.07
2023-05-13T05:41:59.246Z,14.05
2023-05-13T05:44:31.475Z,14.07
2023-05-13T05:47:03.361Z,14.10
2023-05-13T05:49:35.221Z,14.12
2023-05-13T05:52:08.007Z,14.20
2023-05-13T05:54:40.055Z,14.28
2023-05-13T05:57:11.895Z,14.35
2023-05-13T05:59:44.062Z,14.48
2023-05-13T06:02:15.873Z,14.63
2023-05-13T06:04:48.249Z,14.76
2023-05-13T06:07:20.589Z,14.90
2023-05-13T06:09:52.911Z,15.03
2023-05-13T06:12:24.833Z,15.17
2023-05-13T06:14:57.412Z,15.30
2023-05-13T06:17:29.368Z,15.41
2023-05-13T06:20:01.342Z,15.53
2023-05-13T06:22:33.153Z,15.67
2023-05-13T06:25:05.770Z,15.77
2023-05-13T06:27:37.846Z,15.84
2023-05-13T06:30:10.956Z,15.91
2023-05-13T06:32:53.494Z,16.02
2023-05-13T06:35:29.455Z,16.12
2023-05-13T06:38:01.476Z,16.22
2023-05-13T06:40:33.281Z,16.31
2023-05-13T06:43:05.212Z,16.37
2023-05-13T06:45:37.360Z,16.46
2023-05-13T06:48:09.436Z,16.57
2023-05-13T06:50:41.650Z,16.66
2023-05-13T06:53:13.446Z,16.76
2023-05-13T06:55:45.782Z,16.86
2023-05-13T06:58:17.810Z,16.97
2023-05-13T07:00:49.746Z,17.08
2023-05-13T07:03:21.692Z,17.20
2023-05-13T07:05:55.679Z,17.31
2023-05-13T07:08:27.667Z,17.43
2023-05-13T07:10:59.500Z,17.54
2023-05-13T07:13:33.634Z,17.64
2023-05-13T07:16:06.586Z,17.76
2023-05-13T07:18:38.484Z,17.89
2023-05-13T07:21:10.507Z,18.00
2023-05-13T07:23:44.345Z,18.13
2023-05-13T07:26:16.956Z,18.27
2023-05-13T07:28:49.284Z,18.43
2023-05-13T07:31:21.388Z,18.57
2023-05-13T07:33:53.157Z,18.68
2023-05-13T07:36:25.261Z,18.80
2023-05-13T07:38:57.071Z,18.89
2023-05-13T07:41:29.923Z,18.98
2023-05-13T07:44:01.877Z,19.09
2023-05-13T07:46:33.869Z,19.18
2023-05-13T07:49:07.047Z,19.26
2023-05-13T07:51:38.982Z,19.36
2023-05-13T07:54:11.683Z,19.49
2023-05-13T07:56:44.452Z,19.65
2023-05-13T07:59:16.902Z,19.83
2023-05-13T08:01:50.628Z,20.02
2023-05-13T08:04:22.726Z,20.19
2023-05-13T08:06:55.276Z,20.33
2023-05-13T08:09:27.569Z,20.47
2023-05-13T08:11:59.500Z,20.63
2023-05-13T08:14:31.797Z,20.78
2023-05-13T08:17:04.639Z,20.89
2023-05-13T08:19:36.816Z,21.06
2023-05-13T08:22:08.865Z,21.22
2023-05-13T08:24:43.416Z,21.37
2023-05-13T08:27:15.398Z,21.51
2023-05-13T08:29:47.343Z,21.68
2023-05-13T08:32:19.894Z,21.87
2023-05-13T08:34:51.926Z,22.08
2023-05-13T08:37:23.796Z,22.30
2023-05-13T08:39:57.706Z,22.52
2023-05-13T08:42:30.798Z,22.66
2023-05-13T08:45:05.696Z,22.76
2023-05-13T08:47:45.073Z,22.87
2023-05-13T08:50:17.518Z,23.00
2023-05-13T08:52:49.412Z,23.09
2023-05-13T08:55:22.007Z,23.27
2023-05-13T08:57:54.841Z,23.48
2023-05-13T09:00:27.281Z,23.67
2023-05-13T09:02:59.328Z,23.84
2023-05-13T09:05:32.101Z,23.93
2023-05-13T09:08:10.090Z,24.00
2023-05-13T09:10:42.285Z,23.97
2023-05-13T09:13:14.589Z,23.99
2023-05-13T09:15:47.570Z,24.00
2023-05-13T09:18:20.121Z,23.91
2023-05-13T09:20:52.260Z,23.85
2023-05-13T09:23:26.151Z,23.85
2023-05-13T09:25:58.052Z,23.91
2023-05-13T09:28:30.137Z,24.00
2023-05-13T09:31:02.035Z,24.12
2023-05-13T09:33:33.807Z,24.17
2023-05-13T09:36:07.882Z,24.15
2023-05-13T09:38:40.225Z,24.15
2023-05-13T09:41:13.033Z,24.19
2023-05-13T09:43:46.636Z,24.23
2023-05-13T09:46:18.599Z,24.36
2023-05-13T09:48:57.115Z,24.46
2023-05-13T09:51:31.350Z,24.45
2023-05-13T09:54:08.260Z,24.37
2023-05-13T09:56:40.570Z,24.41
2023-05-13T09:59:12.510Z,24.46
2023-05-13T10:01:45.859Z,24.56
2023-05-13T10:04:18.233Z,24.66
2023-05-13T10:06:51.942Z,24.72
2023-05-13T10:09:25.332Z,24.88
2023-05-13T10:11:55.901Z,25.04
2023-05-13T10:14:29.171Z,25.14
2023-05-13T10:17:01.906Z,25.21
2023-05-13T10:19:34.215Z,25.18
2023-05-13T10:22:06.969Z,25.16
2023-05-13T10:24:43.782Z,25.27
2023-05-13T10:27:16.109Z,25.24
2023-05-13T10:29:48.420Z,25.06
2023-05-13T10:32:20.900Z,24.87
2023-05-13T10:34:54.495Z,24.84
2023-05-13T10:37:43.658Z,24.93
2023-05-13T10:41:03.189Z,25.17
2023-05-13T10:43:37.431Z,25.22
2023-05-13T10:46:13.889Z,25.19
2023-05-13T10:48:51.115Z,25.00
2023-05-13T10:51:26.737Z,24.74
2023-05-13T10:53:59.722Z,24.63
2023-05-13T10:56:31.693Z,24.70
2023-05-13T10:59:04.897Z,24.84
2023-05-13T11:01:43.370Z,24.98
2023-05-13T11:04:18.902Z,25.08
2023-05-13T11:06:51.577Z,24.96
2023-05-13T11:09:39.910Z,24.73
2023-05-13T11:12:18.042Z,24.46
2023-05-13T11:14:50.041Z,24.14
2023-05-13T11:17:22.041Z,23.82
2023-05-13T11:19:54.509Z,23.60
2023-05-13T11:22:26.462Z,23.45
2023-05-13T11:25:10.556Z,23.50
2023-05-13T11:27:43.584Z,23.77
2023-05-13T11:30:26.990Z,24.12
2023-05-13T11:33:00.005Z,24.51
2023-05-13T11:35:33.341Z,24.87
2023-05-13T11:38:07.047Z,25.07
2023-05-13T11:40:39.502Z,25.09
2023-05-13T11:43:12.805Z,24.98
2023-05-13T11:45:44.749Z,24.80
2023-05-13T11:48:26.430Z,24.57
2023-05-13T11:51:00.397Z,24.33
2023-05-13T11:53:33.340Z,24.07
2023-05-13T11:56:13.022Z,23.82
2023-05-13T11:58:44.824Z,23.66
2023-05-13T12:01:19.104Z,23.56
2023-05-13T12:03:51.821Z,23.55
2023-05-13T12:06:23.926Z,23.81
2023-05-13T12:08:56.327Z,24.11
2023-05-13T12:11:28.754Z,24.31
2023-05-13T12:14:01.680Z,24.55
2023-05-13T12:16:33.930Z,24.70
2023-05-13T12:19:11.146Z,24.64
2023-05-13T12:21:43.406Z,24.73
2023-05-13T12:24:24.848Z,24.90
2023-05-13T12:27:11.497Z,24.91
2023-05-13T12:29:45.652Z,24.70
2023-05-13T12:32:19.858Z,24.63
2023-05-13T12:34:55.350Z,24.77
2023-05-13T12:37:28.862Z,25.05
2023-05-13T12:40:13.805Z,25.36
2023-05-13T12:42:48.863Z,25.74
2023-05-13T12:45:24.241Z,25.90
2023-05-13T12:47:57.921Z,25.79
2023-05-13T12:50:28.405Z,25.71
2023-05-13T12:53:01.219Z,25.77
2023-05-13T12:55:33.138Z,25.71
2023-05-13T12:58:06.662Z,25.46
2023-05-13T13:00:38.901Z,25.12
2023-05-13T13:03:11.575Z,24.88
2023-05-13T13:05:43.827Z,24.95
2023-05-13T13:08:16.986Z,25.24
2023-05-13T13:10:48.925Z,25.58
2023-05-13T13:13:20.867Z,25.82
2023-05-13T13:15:53.134Z,25.91
2023-05-13T13:18:25.991Z,25.86
2023-05-13T13:20:58.116Z,25.59
2023-05-13T13:23:31.708Z,25.25
2023-05-13T13:26:04.307Z,24.93
2023-05-13T13:28:36.302Z,24.63
2023-05-13T13:31:08.919Z,24.36
2023-05-13T13:33:41.296Z,24.12
2023-05-13T13:36:13.208Z,23.97
2023-05-13T13:38:45.625Z,23.82
2023-05-13T13:41:17.661Z,23.63
2023-05-13T13:43:49.902Z,23.51
2023-05-13T13:46:22.323Z,23.53
2023-05-13T13:48:54.758Z,23.80
2023-05-13T13:51:26.685Z,24.01
2023-05-13T13:54:03.777Z,24.13
2023-05-13T13:56:37.160Z,24.48
2023-05-13T13:59:09.459Z,24.88
2023-05-13T14:01:41.321Z,25.16
2023-05-13T14:04:19.956Z,25.28
2023-05-13T14:06:52.225Z,25.06
2023-05-13T14:09:24.376Z,24.60
2023-05-13T14:11:56.723Z,24.26
2023-05-13T14:14:28.614Z,24.03
2023-05-13T14:17:00.504Z,24.00
2023-05-13T14:19:32.551Z,24.10
2023-05-13T14:22:04.479Z,24.02
2023-05-13T14:24:36.953Z,23.90
2023-05-13T14:27:08.889Z,23.64
2023-05-13T14:29:41.018Z,23.39
2023-05-13T14:32:12.833Z,23.17
2023-05-13T14:34:45.300Z,22.96
2023-05-13T14:37:18.842Z,22.88
2023-05-13T14:39:51.142Z,23.04
2023-05-13T14:42:22.923Z,23.35
2023-05-13T14:44:56.706Z,23.77
2023-05-13T14:47:27.667Z,24.41
2023-05-13T14:49:59.761Z,24.99
2023-05-13T14:52:31.822Z,25.35
2023-05-13T14:55:04.213Z,25.58
2023-05-13T14:57:36.822Z,25.62
2023-05-13T15:00:11.472Z,25.65
2023-05-13T15:02:43.500Z,25.90
2023-05-13T15:05:15.815Z,26.25
2023-05-13T15:07:49.871Z,26.25
2023-05-13T15:10:22.372Z,26.25
2023-05-13T15:12:54.539Z,26.34
2023-05-13T15:15:26.430Z,26.39
2023-05-13T15:18:00.570Z,26.20
2023-05-13T15:20:35.096Z,25.63
2023-05-13T15:23:07.355Z,24.92
2023-05-13T15:25:39.861Z,24.19
2023-05-13T15:28:12.437Z,23.56
2023-05-13T15:30:44.605Z,23.09
2023-05-13T15:33:16.773Z,22.73
2023-05-13T15:35:48.910Z,22.43
2023-05-13T15:38:20.910Z,22.22
2023-05-13T15:40:52.966Z,22.01
2023-05-13T15:43:24.941Z,21.78
2023-05-13T15:45:59.020Z,21.51
2023-05-13T15:48:31.929Z,21.25
2023-05-13T15:51:04.941Z,21.17
2023-05-13T15:53:36.904Z,21.32
2023-05-13T15:56:09.600Z,21.62
2023-05-13T15:58:41.638Z,21.93
2023-05-13T16:01:14.034Z,22.25
2023-05-13T16:03:46.034Z,22.47
2023-05-13T16:06:18.206Z,22.54
2023-05-13T16:08:50.492Z,22.48
2023-05-13T16:11:22.899Z,22.42
2023-05-13T16:13:54.738Z,22.48
2023-05-13T16:16:27.729Z,22.53
2023-05-13T16:19:00.165Z,22.69
2023-05-13T16:21:32.452Z,22.95
2023-05-13T16:24:04.873Z,23.10
2023-05-13T16:26:37.377Z,23.31
2023-05-13T16:29:09.581Z,23.51
2023-05-13T16:31:42.362Z,23.65
2023-05-13T16:34:14.344Z,23.66
2023-05-13T16:36:46.812Z,23.76
2023-05-13T16:39:18.949Z,23.83
2023-05-13T16:41:50.911Z,23.77
2023-05-13T16:44:23.389Z,23.63
2023-05-13T16:46:56.488Z,23.53
2023-05-13T16:49:28.579Z,23.48
2023-05-13T16:52:00.882Z,23.48
2023-05-13T16:54:33.089Z,23.46
2023-05-13T16:57:05.467Z,23.35
2023-05-13T16:59:37.635Z,23.21
2023-05-13T17:02:10.374Z,23.00
2023-05-13T17:04:41.759Z,22.82
2023-05-13T17:07:13.840Z,22.65
2023-05-13T17:09:46.201Z,22.47
2023-05-13T17:12:18.325Z,22.30
2023-05-13T17:14:50.943Z,22.23
2023-05-13T17:17:23.560Z,22.15
2023-05-13T17:19:55.591Z,21.94
2023-05-13T17:22:27.991Z,21.68
2023-05-13T17:24:59.900Z,21.54
2023-05-13T17:27:31.997Z,21.42
2023-05-13T17:30:04.036Z,21.31
2023-05-13T17:32:36.265Z,21.18
2023-05-13T17:35:09.838Z,21.08
2023-05-13T17:37:41.921Z,20.97
2023-05-13T17:40:15.256Z,20.88
2023-05-13T17:42:47.411Z,20.78
2023-05-13T17:45:19.700Z,20.65
2023-05-13T17:47:51.882Z,20.52
2023-05-13T17:50:24.559Z,20.40
2023-05-13T17:52:56.657Z,20.28
2023-05-13T17:55:28.834Z,20.16
2023-05-13T17:58:01.878Z,20.06
2023-05-13T18:00:33.833Z,19.97
2023-05-13T18:03:05.871Z,19.88
2023-05-13T18:05:37.898Z,19.80
2023-05-13T18:08:09.761Z,19.71
2023-05-13T18:10:41.819Z,19.63
2023-05-13T18:13:13.971Z,19.55
2023-05-13T18:15:46.023Z,19.44
2023-05-13T18:18:18.765Z,19.29
2023-05-13T18:20:51.386Z,19.17
2023-05-13T18:23:23.225Z,19.04
2023-05-13T18:25:56.320Z,18.92
2023-05-13T18:28:28.828Z,18.81
2023-05-13T18:31:00.688Z,18.69
2023-05-13T18:33:36.003Z,18.58
2023-05-13T18:36:10.208Z,18.45
2023-05-13T18:38:45.636Z,18.31
2023-05-13T18:41:17.436Z,18.18
2023-05-13T18:43:49.812Z,18.06
2023-05-13T18:46:22.760Z,17.93
2023-05-13T18:48:54.774Z,17.81
2023-05-13T18:51:26.819Z,17.69
2023-05-13T18:53:59.013Z,17.58
2023-05-13T18:56:31.185Z,17.47
2023-05-13T18:59:03.696Z,17.36
2023-05-13T19:01:35.811Z,17.25
2023-05-13T19:04:08.241Z,17.13
2023-05-13T19:06:40.295Z,17.02
2023-05-13T19:09:12.252Z,16.92
2023-05-13T19:11:44.612Z,16.84
2023-05-13T19:14:16.453Z,16.78
2023-05-13T19:16:48.413Z,16.69
2023-05-13T19:19:20.530Z,16.61
2023-05-13T19:21:52.843Z,16.55
2023-05-13T19:24:24.756Z,16.50
2023-05-13T19:26:56.767Z,16.43
2023-05-13T19:29:28.832Z,16.38
2023-05-13T19:32:02.596Z,16.34
2023-05-13T19:34:32.967Z,16.31
2023-05-13T19:37:05.605Z,16.24
2023-05-13T19:39:37.755Z,16.20
2023-05-13T19:42:10.052Z,16.16
2023-05-13T19:44:42.370Z,16.13
2023-05-13T19:47:14.245Z,16.10
2023-05-13T19:49:46.559Z,16.07
2023-05-13T19:52:19.470Z,16.03
2023-05-13T19:54:51.799Z,15.98
2023-05-13T19:57:26.135Z,15.93
2023-05-13T19:59:59.572Z,15.85
2023-05-13T20:02:31.639Z,15.77
2023-05-13T20:05:03.825Z,15.70
2023-05-13T20:07:35.775Z,15.64
2023-05-13T20:10:10.992Z,15.58
2023-05-13T20:12:43.483Z,15.54
2023-05-13T20:15:17.269Z,15.49
2023-05-13T20:17:50.490Z,15.43
2023-05-13T20:20:22.948Z,15.39
2023-05-13T20:22:55.314Z,15.35
2023-05-13T20:25:27.642Z,15.32
2023-05-13T20:28:01.952Z,15.26
2023-05-13T20:30:34.019Z,15.20
2023-05-13T20:33:06.735Z,15.14
2023-05-13T20:35:38.731Z,15.06
2023-05-13T20:38:11.033Z,14.98
2023-05-13T20:40:43.505Z,14.89
2023-05-13T20:43:17.785Z,14.78
2023-05-13T20:45:50.805Z,14.70
2023-05-13T20:48:25.202Z,14.61
2023-05-13T20:51:04.976Z,14.52
2023-05-13T20:53:37.521Z,14.43
2023-05-13T20:56:10.689Z,14.33
2023-05-13T20:58:43.083Z,14.25
2023-05-13T21:01:15.936Z,14.18
2023-05-13T21:03:50.139Z,14.12
2023-05-13T21:06:22.878Z,14.07
2023-05-13T21:08:55.530Z,14.02
2023-05-13T21:11:27.946Z,13.95
2023-05-13T21:14:04.732Z,13.87
2023-05-13T21:16:39.056Z,13.80
2023-05-13T21:19:09.586Z,13.75
2023-05-13T21:21:47.075Z,13.68
2023-05-13T21:24:19.816Z,13.63
2023-05-13T21:26:52.617Z,13.55
2023-05-13T21:29:30.476Z,13.47
2023-05-13T21:32:02.718Z,13.40
2023-05-13T21:34:35.765Z,13.32
2023-05-13T21:37:08.012Z,13.28
2023-05-13T21:39:40.017Z,13.24
2023-05-13T21:42:13.069Z,13.21
2023-05-13T21:44:45.161Z,13.17
2023-05-13T21:47:17.667Z,13.14
2023-05-13T21:49:49.698Z,13.09
2023-05-13T21:52:22.428Z,13.02
2023-05-13T21:54:55.507Z,12.96
2023-05-13T21:57:27.830Z,12.90
2023-05-13T21:59:59.781Z,12.84
2023-05-13T22:02:32.313Z,12.82
2023-05-13T22:05:04.575Z,12.80
2023-05-13T22:07:38.665Z,12.79
2023-05-13T22:10:12.714Z,12.77
2023-05-13T22:12:47.024Z,12.74
2023-05-13T22:15:21.754Z,12.71
2023-05-13T22:17:53.782Z,12.68
2023-05-13T22:20:26.720Z,12.64
2023-05-13T22:22:58.643Z,12.60
2023-05-13T22:25:30.734Z,12.54
2023-05-13T22:28:03.085Z,12.48
2023-05-13T22:30:35.737Z,12.41
2023-05-13T22:33:07.859Z,12.37
2023-05-13T22:35:40.226Z,12.34
2023-05-13T22:38:12.268Z,12.30
2023-05-13T22:40:45.962Z,12.25
2023-05-13T22:43:18.058Z,12.21
2023-05-13T22:45:50.199Z,12.17
2023-05-13T22:48:25.550Z,12.13
2023-05-13T22:50:58.687Z,12.10
2023-05-13T22:53:30.614Z,12.08
2023-05-13T22:56:02.514Z,12.04
2023-05-13T22:58:34.627Z,12.02
2023-05-13T23:01:06.737Z,11.96
2023-05-13T23:03:38.917Z,11.93
2023-05-13T23:06:11.550Z,11.90
2023-05-13T23:08:43.463Z,11.88
2023-05-13T23:11:15.642Z,11.84
2023-05-13T23:13:48.228Z,11.81
2023-05-13T23:16:20.169Z,11.78
2023-05-13T23:18:52.461Z,11.73
2023-05-13T23:21:24.354Z,11.69
2023-05-13T23:23:57.536Z,11.65
2023-05-13T23:26:29.595Z,11.63
2023-05-13T23:29:02.142Z,11.60
2023-05-13T23:31:35.673Z,11.56
2023-05-13T23:34:07.675Z,11.51
2023-05-13T23:36:39.508Z,11.47
2023-05-13T23:39:12.199Z,11.43
2023-05-13T23:41:44.154Z,11.40
2023-05-13T23:44:18.166Z,11.38
2023-05-13T23:46:48.486Z,11.35
2023-05-13T23:49:20.659Z,11.31
2023-05-13T23:51:52.634Z,11.30
2023-05-13T23:54:24.676Z,11.27
2023-05-13T23:56:56.754Z,11.24
2023-05-13T23:59:29.126Z,11.20
